Time;durP1;ratioP1;P1;durP2;ratioP2;P2;SDS_P1;SDS_P2;PMS_P1;PMS_P2;Temp;Humidity;BMP_temperature;BMP_pressure;BME280_temperature;BME280_humidity;BME280_pressure;Samples;Min_cycle;Max_cycle;Signal;HPM_P1;HPM_P2
2024/01/21 00:01:54;;;;;;;76.33;14.20;;;;;;;;;;5061276;28;20530;-79
2024/01/21 00:04:20;;;;;;;68.33;13.23;;;;;;;;;;5063002;28;20035;-80
2024/01/21 00:06:46;;;;;;;37.67;9.23;;;;;;;;;;5075780;28;20479;-82
2024/01/21 00:09:12;;;;;;;65.30;12.97;;;;;;;;;;5056975;28;20358;-80
2024/01/21 00:11:38;;;;;;;45.87;10.00;;;;;;;;;;5058867;28;20032;-80
2024/01/21 00:14:04;;;;;;;48.37;9.60;;;;;;;;;;5074940;28;20101;-82
2024/01/21 00:16:30;;;;;;;50.37;9.43;;;;;;;;;;5059236;28;20035;-80
2024/01/21 00:18:56;;;;;;;28.33;7.07;;;;;;;;;;5069138;28;20375;-82
2024/01/21 00:21:22;;;;;;;77.70;15.10;;;;;;;;;;5066467;28;20306;-80
2024/01/21 00:23:50;;;;;;;56.67;11.97;;;;;;;;;;5066632;28;20020;-80
2024/01/21 00:26:16;;;;;;;44.40;9.73;;;;;;;;;;5073179;28;20472;-78
2024/01/21 00:28:44;;;;;;;52.17;9.87;;;;;;;;;;5066289;28;22103;-78
2024/01/21 00:31:10;;;;;;;31.40;6.50;;;;;;;;;;5064859;28;20336;-78
2024/01/21 00:33:39;;;;;;;62.27;12.40;;;;;;;;;;5071116;28;20299;-79
2024/01/21 00:36:07;;;;;;;48.10;9.53;;;;;;;;;;5066635;28;20143;-79
2024/01/21 00:38:33;;;;;;;56.77;14.10;;;;;;;;;;5065774;28;20301;-82
2024/01/21 00:40:59;;;;;;;29.03;7.57;;;;;;;;;;5065708;28;20286;-77
2024/01/21 00:43:25;;;;;;;53.40;12.67;;;;;;;;;;5065320;28;20028;-78
2024/01/21 00:45:53;;;;;;;68.07;14.07;;;;;;;;;;5049459;28;20592;-81
2024/01/21 00:48:19;;;;;;;122.60;21.90;;;;;;;;;;5048047;28;20041;-78
2024/01/21 00:50:45;;;;;;;78.67;13.37;;;;;;;;;;5052863;28;20285;-82
2024/01/21 00:53:13;;;;;;;68.60;15.07;;;;;;;;;;5047623;28;20358;-76
2024/01/21 00:55:39;;;;;;;133.93;26.20;;;;;;;;;;5053917;28;20286;-77
2024/01/21 00:58:05;;;;;;;63.87;14.37;;;;;;;;;;5045349;28;20283;-79
2024/01/21 01:00:31;;;;;;;132.00;21.50;;;;;;;;;;5066402;28;20047;-80
2024/01/21 01:02:57;;;;;;;72.43;14.53;;;;;;;;;;5065806;28;20338;-79
2024/01/21 01:05:23;;;;;;;91.90;17.63;;;;;;;;;;5046298;28;20105;-80
2024/01/21 01:07:49;;;;;;;74.07;14.07;;;;;;;;;;5066106;28;20599;-78
2024/01/21 01:10:15;;;;;;;96.27;16.73;;;;;;;;;;5065330;28;20374;-82
2024/01/21 01:12:43;;;;;;;102.10;18.67;;;;;;;;;;5047375;28;20032;-77
2024/01/21 01:15:11;;;;;;;103.57;19.07;;;;;;;;;;5043560;28;20310;-79
2024/01/21 01:17:37;;;;;;;68.13;14.37;;;;;;;;;;5063295;28;20276;-77
2024/01/21 01:20:03;;;;;;;102.20;20.37;;;;;;;;;;5065670;28;20278;-80
2024/01/21 01:22:31;;;;;;;113.87;20.93;;;;;;;;;;5064556;28;20408;-80
2024/01/21 01:24:57;;;;;;;60.20;12.73;;;;;;;;;;5053316;28;20278;-78
2024/01/21 01:27:24;;;;;;;64.43;11.83;;;;;;;;;;5064280;28;20274;-79
2024/01/21 01:29:51;;;;;;;77.77;14.10;;;;;;;;;;5047737;28;20291;-83
2024/01/21 01:32:17;;;;;;;55.70;10.93;;;;;;;;;;5065272;28;20282;-81
2024/01/21 01:34:42;;;;;;;49.90;10.10;;;;;;;;;;5065002;28;20284;-77
2024/01/21 01:37:09;;;;;;;69.40;13.50;;;;;;;;;;5046804;28;20039;-84
2024/01/21 01:39:36;;;;;;;83.47;16.20;;;;;;;;;;5046112;28;20464;-79
2024/01/21 01:42:02;;;;;;;55.70;12.20;;;;;;;;;;5066286;28;20278;-78
2024/01/21 01:44:28;;;;;;;101.37;17.30;;;;;;;;;;5066479;28;20710;-85
2024/01/21 01:46:56;;;;;;;62.83;12.90;;;;;;;;;;5067161;28;20109;-82
2024/01/21 01:49:25;;;;;;;127.20;22.73;;;;;;;;;;5046251;28;20115;-80
2024/01/21 01:51:54;;;;;;;90.10;18.97;;;;;;;;;;5063862;28;20279;-78
2024/01/21 01:54:21;;;;;;;77.17;15.57;;;;;;;;;;5065106;28;20722;-79
2024/01/21 01:56:47;;;;;;;54.43;10.70;;;;;;;;;;5044099;28;20329;-82
2024/01/21 01:59:14;;;;;;;72.07;13.87;;;;;;;;;;5047984;28;20411;-84
2024/01/21 02:01:40;;;;;;;154.33;27.37;;;;;;;;;;5065832;28;20290;-80
2024/01/21 02:04:08;;;;;;;42.77;9.67;;;;;;;;;;5064528;28;20282;-79
2024/01/21 02:06:34;;;;;;;50.57;11.73;;;;;;;;;;5065277;28;20301;-75
2024/01/21 02:09:00;;;;;;;84.00;16.37;;;;;;;;;;5064493;28;20921;-78
2024/01/21 02:11:27;;;;;;;134.00;26.53;;;;;;;;;;5065285;28;20329;-80
2024/01/21 02:13:52;;;;;;;30.40;8.00;;;;;;;;;;5041107;28;20275;-80
2024/01/21 02:16:19;;;;;;;97.70;19.13;;;;;;;;;;5065313;28;20297;-84
2024/01/21 02:18:45;;;;;;;75.00;14.07;;;;;;;;;;5044218;28;20040;-77
2024/01/21 02:21:12;;;;;;;57.80;11.23;;;;;;;;;;5069074;28;20270;-79
2024/01/21 02:23:38;;;;;;;55.30;10.23;;;;;;;;;;5070110;28;20282;-79
2024/01/21 02:26:04;;;;;;;63.50;11.80;;;;;;;;;;5046742;28;20274;-81
2024/01/21 02:28:30;;;;;;;91.67;16.17;;;;;;;;;;5048672;28;20298;-77
2024/01/21 02:30:56;;;;;;;77.83;15.10;;;;;;;;;;5068341;28;20051;-78
2024/01/21 02:33:22;;;;;;;69.57;12.27;;;;;;;;;;5048375;28;21148;-76
2024/01/21 02:35:48;;;;;;;39.40;7.57;;;;;;;;;;5068870;28;20037;-76
2024/01/21 02:38:14;;;;;;;63.73;12.57;;;;;;;;;;5069015;28;20274;-79
2024/01/21 02:40:40;;;;;;;120.30;19.83;;;;;;;;;;5068727;28;20028;-79
2024/01/21 02:43:12;;;;;;;126.10;24.13;;;;;;;;;;5068228;28;20037;-78
2024/01/21 02:45:38;;;;;;;133.77;22.37;;;;;;;;;;5066232;28;20290;-84
2024/01/21 02:48:04;;;;;;;140.97;25.43;;;;;;;;;;5067988;28;20287;-79
2024/01/21 02:50:30;;;;;;;121.53;21.00;;;;;;;;;;5067430;28;20131;-81
2024/01/21 02:52:56;;;;;;;116.60;21.13;;;;;;;;;;5070689;28;20980;-79
2024/01/21 02:55:22;;;;;;;111.70;19.47;;;;;;;;;;5068036;28;20032;-82
2024/01/21 02:57:48;;;;;;;124.70;22.97;;;;;;;;;;5046454;28;20028;-82
2024/01/21 03:00:17;;;;;;;28.67;6.03;;;;;;;;;;5067257;28;20377;-81
2024/01/21 03:02:45;;;;;;;63.93;10.37;;;;;;;;;;5066068;28;20065;-81
2024/01/21 03:05:11;;;;;;;64.37;12.17;;;;;;;;;;5066293;28;20270;-79
2024/01/21 03:07:37;;;;;;;64.50;11.67;;;;;;;;;;5067259;28;20278;-77
2024/01/21 03:10:04;;;;;;;77.60;14.97;;;;;;;;;;5048380;28;20064;-78
2024/01/21 03:12:30;;;;;;;86.07;14.73;;;;;;;;;;5065988;28;20032;-80
2024/01/21 03:14:56;;;;;;;72.60;12.50;;;;;;;;;;5066170;28;20278;-81
2024/01/21 03:17:22;;;;;;;97.43;17.20;;;;;;;;;;5049604;28;20267;-80
2024/01/21 03:19:48;;;;;;;113.03;21.17;;;;;;;;;;5066562;28;20044;-84
2024/01/21 03:22:14;;;;;;;151.67;26.70;;;;;;;;;;5067345;28;20437;-75
2024/01/21 03:24:40;;;;;;;46.47;9.40;;;;;;;;;;5070362;28;20172;-81
2024/01/21 03:27:06;;;;;;;54.00;10.40;;;;;;;;;;5048231;28;20072;-76
2024/01/21 03:29:31;;;;;;;57.00;10.73;;;;;;;;;;5066473;28;20682;-80
2024/01/21 03:32:00;;;;;;;57.27;9.47;;;;;;;;;;5049266;28;20281;-79
2024/01/21 03:34:28;;;;;;;93.57;18.13;;;;;;;;;;5070545;28;20033;-79
2024/01/21 03:36:54;;;;;;;79.43;14.07;;;;;;;;;;5069265;28;20995;-80
2024/01/21 03:39:20;;;;;;;112.17;18.50;;;;;;;;;;5066524;28;20377;-82
2024/01/21 03:41:47;;;;;;;95.50;18.03;;;;;;;;;;5067221;28;21724;-79
2024/01/21 03:44:13;;;;;;;40.17;9.33;;;;;;;;;;5068587;28;20024;-78
2024/01/21 03:46:40;;;;;;;53.37;10.20;;;;;;;;;;5048254;28;20332;-80
2024/01/21 03:49:06;;;;;;;112.80;20.47;;;;;;;;;;5069085;28;20085;-79
2024/01/21 03:51:31;;;;;;;87.53;15.27;;;;;;;;;;5067766;28;20934;-78
2024/01/21 03:53:57;;;;;;;60.63;11.67;;;;;;;;;;5065731;28;20052;-79
2024/01/21 03:56:26;;;;;;;66.97;12.30;;;;;;;;;;5069491;28;20068;-77
2024/01/21 03:58:52;;;;;;;85.93;17.97;;;;;;;;;;5067052;28;20076;-77
2024/01/21 04:01:18;;;;;;;84.23;15.47;;;;;;;;;;5069589;28;21256;-79
2024/01/21 04:03:43;;;;;;;58.13;10.40;;;;;;;;;;5070477;28;20052;-80
2024/01/21 04:06:09;;;;;;;106.20;19.17;;;;;;;;;;5046375;28;20116;-81
2024/01/21 04:08:35;;;;;;;52.20;10.80;;;;;;;;;;5066354;28;21713;-83
2024/01/21 04:11:01;;;;;;;60.67;11.23;;;;;;;;;;5066936;28;20032;-80
2024/01/21 04:13:27;;;;;;;123.00;20.63;;;;;;;;;;5067096;28;20339;-78
2024/01/21 04:15:56;;;;;;;49.13;10.00;;;;;;;;;;5064872;28;20287;-82
2024/01/21 04:18:22;;;;;;;66.17;13.73;;;;;;;;;;5047266;28;20028;-78
2024/01/21 04:20:50;;;;;;;99.53;17.87;;;;;;;;;;5069652;28;20282;-79
2024/01/21 04:23:16;;;;;;;63.43;13.87;;;;;;;;;;5066588;28;20033;-82
2024/01/21 04:25:42;;;;;;;101.60;17.40;;;;;;;;;;5048513;28;20333;-82
2024/01/21 04:28:08;;;;;;;73.10;14.67;;;;;;;;;;5066140;28;20123;-79
2024/01/21 04:30:35;;;;;;;72.30;12.13;;;;;;;;;;5066067;28;21967;-78
2024/01/21 04:33:01;;;;;;;101.90;17.67;;;;;;;;;;5067126;28;20318;-77
2024/01/21 04:35:30;;;;;;;41.67;8.07;;;;;;;;;;5069043;28;20865;-75
2024/01/21 04:37:56;;;;;;;72.60;15.90;;;;;;;;;;5064462;28;20310;-81
2024/01/21 04:40:22;;;;;;;107.53;20.00;;;;;;;;;;5065602;28;20802;-84
2024/01/21 04:42:48;;;;;;;24.57;5.20;;;;;;;;;;5072663;28;20028;-82
2024/01/21 04:45:16;;;;;;;52.87;10.67;;;;;;;;;;5085702;28;20700;-82
2024/01/21 04:47:42;;;;;;;30.63;5.80;;;;;;;;;;5075800;28;20021;-80
2024/01/21 04:50:08;;;;;;;115.93;21.97;;;;;;;;;;5080404;28;20353;-80
2024/01/21 04:52:36;;;;;;;82.13;14.00;;;;;;;;;;5076138;28;20457;-85
2024/01/21 04:55:03;;;;;;;31.43;6.77;;;;;;;;;;5069261;28;20703;-78
2024/01/21 04:57:29;;;;;;;97.93;15.77;;;;;;;;;;5071623;28;20271;-80
2024/01/21 04:59:55;;;;;;;64.37;13.67;;;;;;;;;;5087108;28;20279;-79
2024/01/21 05:02:23;;;;;;;73.40;14.70;;;;;;;;;;5058713;28;20116;-81
2024/01/21 05:04:49;;;;;;;74.30;13.07;;;;;;;;;;5064826;28;20021;-81
2024/01/21 05:07:15;;;;;;;67.57;13.63;;;;;;;;;;5066054;28;20595;-79
2024/01/21 05:09:41;;;;;;;78.77;16.27;;;;;;;;;;5057273;28;20082;-84
2024/01/21 05:12:07;;;;;;;77.33;14.80;;;;;;;;;;5054588;28;20896;-80
2024/01/21 05:14:33;;;;;;;76.90;14.40;;;;;;;;;;5075204;28;20062;-79
2024/01/21 05:16:59;;;;;;;23.97;5.47;;;;;;;;;;5074377;28;20395;-82
2024/01/21 05:19:27;;;;;;;62.80;11.57;;;;;;;;;;5072357;28;20025;-83
2024/01/21 05:21:53;;;;;;;58.53;10.17;;;;;;;;;;5059547;28;20020;-82
2024/01/21 05:24:19;;;;;;;53.67;9.50;;;;;;;;;;5065181;28;20809;-79
2024/01/21 05:26:46;;;;;;;42.13;8.17;;;;;;;;;;5061024;28;20032;-80
2024/01/21 05:29:12;;;;;;;49.27;7.10;;;;;;;;;;5057869;28;20270;-86
2024/01/21 05:31:38;;;;;;;50.40;9.07;;;;;;;;;;5060894;28;20293;-80
2024/01/21 05:34:07;;;;;;;24.97;6.07;;;;;;;;;;5081860;28;20275;-83
2024/01/21 05:36:33;;;;;;;49.50;9.60;;;;;;;;;;5072401;28;20287;-79
2024/01/21 05:38:59;;;;;;;44.83;7.97;;;;;;;;;;5056955;28;20258;-82
2024/01/21 05:41:28;;;;;;;68.33;11.90;;;;;;;;;;5079458;28;20720;-79
2024/01/21 05:43:56;;;;;;;54.43;10.27;;;;;;;;;;5059195;28;20032;-76
2024/01/21 05:46:22;;;;;;;59.20;11.27;;;;;;;;;;5060460;28;20282;-79
2024/01/21 05:48:49;;;;;;;81.20;12.00;;;;;;;;;;5075240;28;20259;-79
2024/01/21 05:51:15;;;;;;;54.27;11.03;;;;;;;;;;5078999;28;20258;-81
2024/01/21 05:53:42;;;;;;;29.43;5.67;;;;;;;;;;5058574;28;20252;-81
2024/01/21 05:56:08;;;;;;;49.83;9.80;;;;;;;;;;5058747;28;20286;-81
2024/01/21 05:58:35;;;;;;;15.33;4.00;;;;;;;;;;5069272;28;20328;-80
2024/01/21 06:01:01;;;;;;;21.20;4.90;;;;;;;;;;5072541;28;20654;-80
2024/01/21 06:03:27;;;;;;;52.97;10.57;;;;;;;;;;5070237;28;20309;-79
2024/01/21 06:05:53;;;;;;;67.50;12.83;;;;;;;;;;5057879;28;20306;-80
2024/01/21 06:08:19;;;;;;;25.00;5.77;;;;;;;;;;5063563;28;20028;-79
2024/01/21 06:10:45;;;;;;;62.97;10.70;;;;;;;;;;5066802;28;20353;-82
2024/01/21 06:13:11;;;;;;;52.30;10.20;;;;;;;;;;5054551;28;20080;-79
2024/01/21 06:15:39;;;;;;;35.60;6.07;;;;;;;;;;5053092;28;20032;-82
2024/01/21 06:18:05;;;;;;;48.60;9.53;;;;;;;;;;5053528;28;20037;-79
2024/01/21 06:20:31;;;;;;;96.53;16.77;;;;;;;;;;5063818;28;20755;-77
2024/01/21 06:23:00;;;;;;;95.83;17.83;;;;;;;;;;5069238;28;20039;-84
2024/01/21 06:25:28;;;;;;;44.67;9.97;;;;;;;;;;5045892;28;20039;-78
2024/01/21 06:27:54;;;;;;;48.40;10.63;;;;;;;;;;5069186;28;20274;-78
2024/01/21 06:30:22;;;;;;;80.47;14.60;;;;;;;;;;5046353;28;20274;-78
2024/01/21 06:32:50;;;;;;;101.17;15.40;;;;;;;;;;5068635;28;20256;-82
2024/01/21 06:35:19;;;;;;;68.27;11.30;;;;;;;;;;5064573;28;20825;-77
2024/01/21 06:37:45;;;;;;;29.77;6.63;;;;;;;;;;5063623;28;20294;-78
2024/01/21 06:40:11;;;;;;;27.20;4.97;;;;;;;;;;5064236;28;20777;-79
2024/01/21 06:42:37;;;;;;;59.97;12.33;;;;;;;;;;5064962;28;20032;-79
2024/01/21 06:45:03;;;;;;;66.70;12.53;;;;;;;;;;5068927;28;20267;-80
2024/01/21 06:47:34;;;;;;;30.50;7.47;;;;;;;;;;5063698;28;20285;-77
2024/01/21 06:50:00;;;;;;;37.63;6.60;;;;;;;;;;5044890;28;20267;-79
2024/01/21 06:52:28;;;;;;;63.20;11.20;;;;;;;;;;5064665;28;20298;-78
2024/01/21 06:54:55;;;;;;;46.97;9.00;;;;;;;;;;5063203;28;20024;-79
2024/01/21 06:57:21;;;;;;;35.33;9.53;;;;;;;;;;5062589;28;20343;-76
2024/01/21 06:59:47;;;;;;;84.87;16.67;;;;;;;;;;5065482;28;20275;-82
2024/01/21 07:02:13;;;;;;;55.83;10.90;;;;;;;;;;5041747;28;20278;-79
2024/01/21 07:04:38;;;;;;;51.27;9.90;;;;;;;;;;5065036;28;20287;-82
2024/01/21 07:07:04;;;;;;;55.70;11.30;;;;;;;;;;5070426;28;20032;-79
2024/01/21 07:09:33;;;;;;;40.60;8.77;;;;;;;;;;5049565;28;20039;-80
2024/01/21 07:11:59;;;;;;;40.00;9.50;;;;;;;;;;5054075;28;20302;-79
2024/01/21 07:14:25;;;;;;;20.70;5.53;;;;;;;;;;5068767;28;20274;-79
2024/01/21 07:16:51;;;;;;;63.70;9.33;;;;;;;;;;5049722;28;20325;-82
2024/01/21 07:19:17;;;;;;;22.77;3.93;;;;;;;;;;5068071;28;20306;-80
2024/01/21 07:21:43;;;;;;;67.03;11.80;;;;;;;;;;5067737;28;20021;-78
2024/01/21 07:24:09;;;;;;;23.43;4.70;;;;;;;;;;5068984;28;20036;-80
2024/01/21 07:26:35;;;;;;;57.17;9.80;;;;;;;;;;5067863;28;20108;-85
2024/01/21 07:29:01;;;;;;;52.40;9.63;;;;;;;;;;5051104;28;20040;-79
2024/01/21 07:31:27;;;;;;;77.37;15.57;;;;;;;;;;5067516;28;20036;-80
2024/01/21 07:33:53;;;;;;;69.67;14.50;;;;;;;;;;5068167;28;20042;-78
2024/01/21 07:36:21;;;;;;;51.90;9.40;;;;;;;;;;5066746;28;20089;-77
2024/01/21 07:38:47;;;;;;;35.93;6.80;;;;;;;;;;5048407;28;21225;-77
2024/01/21 07:41:13;;;;;;;78.33;15.80;;;;;;;;;;5043100;28;20366;-80
2024/01/21 07:43:39;;;;;;;53.70;9.77;;;;;;;;;;5067616;28;20055;-79
2024/01/21 07:46:05;;;;;;;38.93;8.13;;;;;;;;;;5065807;28;20356;-78
2024/01/21 07:48:31;;;;;;;70.73;13.73;;;;;;;;;;5065853;28;20279;-78
2024/01/21 07:50:59;;;;;;;38.00;8.70;;;;;;;;;;5066484;28;20050;-79
2024/01/21 07:53:25;;;;;;;60.53;10.87;;;;;;;;;;5055450;28;20124;-79
2024/01/21 07:55:53;;;;;;;64.20;12.40;;;;;;;;;;5067025;28;20695;-82
2024/01/21 07:58:19;;;;;;;68.07;15.00;;;;;;;;;;5067070;28;20279;-77
2024/01/21 08:00:45;;;;;;;69.47;12.53;;;;;;;;;;5067179;28;20375;-80
2024/01/21 08:03:14;;;;;;;66.87;13.23;;;;;;;;;;5047240;28;20036;-77
2024/01/21 08:05:42;;;;;;;78.50;14.53;;;;;;;;;;5067020;28;20377;-82
2024/01/21 08:08:10;;;;;;;63.27;13.50;;;;;;;;;;5067097;28;20279;-80
2024/01/21 08:10:36;;;;;;;84.47;16.07;;;;;;;;;;5045908;28;20284;-79
2024/01/21 08:13:02;;;;;;;51.37;10.00;;;;;;;;;;5066476;28;20278;-78
2024/01/21 08:15:28;;;;;;;50.10;10.13;;;;;;;;;;5049312;28;20036;-79
2024/01/21 08:17:54;;;;;;;52.43;9.03;;;;;;;;;;5065885;28;20086;-77
2024/01/21 08:20:20;;;;;;;52.37;10.90;;;;;;;;;;5041677;28;20284;-79
2024/01/21 08:22:47;;;;;;;49.20;10.30;;;;;;;;;;5066828;28;20051;-80
2024/01/21 08:25:13;;;;;;;49.20;9.53;;;;;;;;;;5045708;28;20285;-80
2024/01/21 08:27:39;;;;;;;46.07;7.97;;;;;;;;;;5065818;28;20282;-80
2024/01/21 08:30:06;;;;;;;13.77;2.30;;;;;;;;;;5066833;28;20362;-80
2024/01/21 08:32:32;;;;;;;48.63;9.07;;;;;;;;;;5048289;28;20131;-79
2024/01/21 08:34:58;;;;;;;81.03;15.30;;;;;;;;;;5066632;28;20674;-79
2024/01/21 08:37:24;;;;;;;92.53;17.47;;;;;;;;;;5065615;28;20114;-82
2024/01/21 08:39:50;;;;;;;74.17;16.00;;;;;;;;;;5047368;28;20039;-81
2024/01/21 08:42:16;;;;;;;56.50;11.73;;;;;;;;;;5047590;28;20271;-79
2024/01/21 08:44:42;;;;;;;50.47;8.73;;;;;;;;;;5066934;28;20032;-78
2024/01/21 08:47:08;;;;;;;81.43;17.27;;;;;;;;;;5068643;28;20294;-84
2024/01/21 08:49:36;;;;;;;94.27;18.27;;;;;;;;;;5070715;28;20040;-75
2024/01/21 08:52:04;;;;;;;25.97;6.90;;;;;;;;;;5065325;28;20044;-79
2024/01/21 08:54:30;;;;;;;48.90;10.23;;;;;;;;;;5048745;28;20290;-75
2024/01/21 08:56:58;;;;;;;63.63;11.90;;;;;;;;;;5064815;28;20309;-79
2024/01/21 08:59:24;;;;;;;61.03;13.57;;;;;;;;;;5068337;28;20064;-80
2024/01/21 09:01:50;;;;;;;77.50;15.93;;;;;;;;;;5068592;28;20287;-83
2024/01/21 09:04:16;;;;;;;66.67;12.27;;;;;;;;;;5066531;28;20332;-77
2024/01/21 09:06:42;;;;;;;115.63;24.37;;;;;;;;;;5069536;28;20473;-80
2024/01/21 09:09:12;;;;;;;137.50;25.53;;;;;;;;;;5068415;28;20286;-86
2024/01/21 09:11:38;;;;;;;154.97;30.73;;;;;;;;;;5070071;28;20036;-85
2024/01/21 09:14:05;;;;;;;105.23;22.37;;;;;;;;;;5048994;28;20274;-78
2024/01/21 09:16:31;;;;;;;78.43;16.70;;;;;;;;;;5073084;28;20299;-79
2024/01/21 09:18:57;;;;;;;24.03;5.10;;;;;;;;;;5048452;28;20294;-84
2024/01/21 09:21:24;;;;;;;54.70;10.30;;;;;;;;;;5046025;28;20123;-77
2024/01/21 09:23:52;;;;;;;60.33;11.77;;;;;;;;;;5066145;28;20282;-78
2024/01/21 09:26:18;;;;;;;98.37;18.20;;;;;;;;;;5065734;28;20270;-78
2024/01/21 09:28:44;;;;;;;30.63;6.50;;;;;;;;;;5065202;28;21169;-78
2024/01/21 09:31:10;;;;;;;97.37;18.07;;;;;;;;;;5047331;28;20102;-78
2024/01/21 09:33:36;;;;;;;50.93;11.57;;;;;;;;;;5065511;28;20047;-83
2024/01/21 09:36:02;;;;;;;54.53;10.03;;;;;;;;;;5047341;28;20302;-78
2024/01/21 09:38:28;;;;;;;82.97;15.07;;;;;;;;;;5071397;28;20324;-82
2024/01/21 09:41:02;;;;;;;108.23;19.63;;;;;;;;;;5057857;28;20399;-79
2024/01/21 09:43:28;;;;;;;76.37;14.17;;;;;;;;;;5079781;28;20024;-83
2024/01/21 09:45:55;;;;;;;80.90;14.57;;;;;;;;;;5054829;28;20282;-78
2024/01/21 09:48:21;;;;;;;72.17;12.47;;;;;;;;;;5076295;28;20301;-87
2024/01/21 09:50:50;;;;;;;58.63;11.80;;;;;;;;;;5077536;28;21113;-86
2024/01/21 09:53:18;;;;;;;70.27;13.93;;;;;;;;;;5059452;28;20052;-83
2024/01/21 09:55:48;;;;;;;88.57;17.67;;;;;;;;;;5054072;28;20330;-85
2024/01/21 09:58:16;;;;;;;79.93;17.47;;;;;;;;;;5069958;28;20849;-82
2024/01/21 10:00:45;;;;;;;58.87;11.23;;;;;;;;;;5067844;28;20349;-84
2024/01/21 10:03:14;;;;;;;86.83;18.17;;;;;;;;;;5071747;28;20306;-83
2024/01/21 10:05:40;;;;;;;65.20;12.00;;;;;;;;;;5069847;28;20278;-79
2024/01/21 10:08:06;;;;;;;100.30;21.33;;;;;;;;;;5053632;28;20305;-84
2024/01/21 10:10:34;;;;;;;101.50;18.20;;;;;;;;;;5053518;28;20384;-85
2024/01/21 10:13:00;;;;;;;79.90;15.10;;;;;;;;;;5071845;28;20735;-82
2024/01/21 10:15:26;;;;;;;110.00;19.90;;;;;;;;;;5054463;28;20355;-81
2024/01/21 10:17:52;;;;;;;113.67;21.27;;;;;;;;;;5073998;28;20024;-79
2024/01/21 10:20:18;;;;;;;25.33;4.87;;;;;;;;;;5072341;28;20340;-80
2024/01/21 10:22:45;;;;;;;24.53;7.30;;;;;;;;;;5072359;28;20293;-85
2024/01/21 10:25:16;;;;;;;68.03;14.83;;;;;;;;;;5070677;28;20032;-82
2024/01/21 10:27:45;;;;;;;74.63;14.30;;;;;;;;;;5074159;28;20305;-85
2024/01/21 10:30:12;;;;;;;37.00;8.50;;;;;;;;;;5055391;28;20357;-83
2024/01/21 10:32:38;;;;;;;86.63;16.50;;;;;;;;;;5076018;28;20028;-83
2024/01/21 10:35:06;;;;;;;84.50;15.60;;;;;;;;;;5075672;28;20308;-84
2024/01/21 10:37:39;;;;;;;93.10;19.37;;;;;;;;;;5077170;28;20271;-83
2024/01/21 10:40:05;;;;;;;57.20;10.88;;;;;;;;;;5052932;28;20335;-81
2024/01/21 10:42:31;;;;;;;93.00;19.63;;;;;;;;;;5083511;28;20048;-87
2024/01/21 10:44:58;;;;;;;125.90;24.97;;;;;;;;;;5086306;28;20334;-86
2024/01/21 10:47:25;;;;;;;85.83;17.03;;;;;;;;;;5099240;28;20331;-88
2024/01/21 10:49:54;;;;;;;93.43;20.03;;;;;;;;;;5078155;28;20275;-84
2024/01/21 10:52:24;;;;;;;88.30;18.50;;;;;;;;;;5064362;28;20290;-84
2024/01/21 10:54:50;;;;;;;119.87;21.47;;;;;;;;;;5055832;28;20259;-85
2024/01/21 10:57:17;;;;;;;94.67;19.50;;;;;;;;;;5064367;28;20290;-84
2024/01/21 10:59:44;;;;;;;123.40;22.80;;;;;;;;;;5065118;28;20307;-85
2024/01/21 11:02:11;;;;;;;89.23;17.50;;;;;;;;;;5064513;28;20358;-83
2024/01/21 11:04:37;;;;;;;87.97;17.03;;;;;;;;;;5062402;28;20275;-86
2024/01/21 11:07:04;;;;;;;88.83;18.67;;;;;;;;;;5066645;28;20266;-87
2024/01/21 11:09:32;;;;;;;105.63;20.63;;;;;;;;;;5066224;28;20267;-85
2024/01/21 11:11:58;;;;;;;99.53;19.03;;;;;;;;;;5067452;28;20273;-86
2024/01/21 11:14:34;;;;;;;60.10;13.47;;;;;;;;;;5069527;28;20056;-85
2024/01/21 11:17:01;;;;;;;73.47;17.20;;;;;;;;;;5073503;28;20041;-86
2024/01/21 11:19:46;;;;;;;63.27;14.30;;;;;;;;;;5063193;28;20327;-87
2024/01/21 11:22:12;;;;;;;69.83;13.17;;;;;;;;;;5057435;28;20267;-87
2024/01/21 11:24:39;;;;;;;51.47;10.50;;;;;;;;;;5062932;28;20303;-89
2024/01/21 11:27:07;;;;;;;65.50;13.60;;;;;;;;;;5067329;28;20279;-91
2024/01/21 11:29:33;;;;;;;9.83;2.70;;;;;;;;;;5084437;28;20632;-86
2024/01/21 11:32:01;;;;;;;63.67;13.27;;;;;;;;;;5089054;28;20274;-86
2024/01/21 11:34:38;;;;;;;58.60;12.37;;;;;;;;;;5065975;28;20489;-91
2024/01/21 11:37:04;;;;;;;59.47;13.80;;;;;;;;;;5069634;28;20346;-86
2024/01/21 11:39:32;;;;;;;46.83;9.80;;;;;;;;;;5071475;28;20286;-90
2024/01/21 11:41:58;;;;;;;73.57;15.87;;;;;;;;;;5090883;28;20367;-90
2024/01/21 11:44:25;;;;;;;71.33;14.97;;;;;;;;;;5070376;28;20283;-88
2024/01/21 11:46:56;;;;;;;64.37;14.70;;;;;;;;;;5079310;28;20036;-80
2024/01/21 11:49:24;;;;;;;59.20;14.23;;;;;;;;;;5084819;28;20281;-90
2024/01/21 11:51:53;;;;;;;63.13;15.00;;;;;;;;;;5092944;28;20278;-88
2024/01/21 11:54:22;;;;;;;45.43;12.90;;;;;;;;;;5089859;28;20259;-90
2024/01/21 11:56:49;;;;;;;91.10;18.13;;;;;;;;;;5072142;28;20298;-92
2024/01/21 11:59:15;;;;;;;22.07;6.10;;;;;;;;;;5079940;28;20320;-89
2024/01/21 12:01:42;;;;;;;84.27;18.53;;;;;;;;;;5089025;28;20254;-90
2024/01/21 12:04:09;;;;;;;31.57;8.23;;;;;;;;;;5074331;28;20269;-88
2024/01/21 12:06:38;;;;;;;60.23;12.50;;;;;;;;;;5073658;28;20271;-91
2024/01/21 12:09:05;;;;;;;56.57;13.67;;;;;;;;;;5071046;28;20278;-91
2024/01/21 12:11:32;;;;;;;72.80;16.23;;;;;;;;;;5072966;28;20282;-92
2024/01/21 12:14:01;;;;;;;55.13;11.47;;;;;;;;;;5078705;28;20282;-89
2024/01/21 12:16:29;;;;;;;49.53;10.43;;;;;;;;;;5073246;28;20729;-92
2024/01/21 12:18:56;;;;;;;49.20;10.27;;;;;;;;;;5064534;28;20283;-85
2024/01/21 12:21:28;;;;;;;79.70;17.47;;;;;;;;;;5085760;28;20294;-85
2024/01/21 12:23:55;;;;;;;49.35;11.05;;;;;;;;;;5082783;28;20275;-86
2024/01/21 12:26:24;;;;;;;64.67;13.40;;;;;;;;;;5084698;28;20055;-88
2024/01/21 12:29:04;;;;;;;30.03;4.97;;;;;;;;;;5063144;28;20274;-89
2024/01/21 12:31:31;;;;;;;37.47;7.37;;;;;;;;;;5065615;28;20321;-87
2024/01/21 12:33:58;;;;;;;55.30;13.03;;;;;;;;;;5082078;28;20287;-87
2024/01/21 12:36:26;;;;;;;73.57;14.47;;;;;;;;;;5082480;28;20282;-89
2024/01/21 12:38:56;;;;;;;25.07;6.50;;;;;;;;;;5086561;28;20330;-84
2024/01/21 12:41:22;;;;;;;62.53;14.77;;;;;;;;;;5083289;28;20270;-88
2024/01/21 12:43:54;;;;;;;46.17;9.37;;;;;;;;;;5083350;28;20298;-86
2024/01/21 12:46:26;;;;;;;45.78;9.75;;;;;;;;;;5067470;28;20279;-86
2024/01/21 12:48:55;;;;;;;57.60;15.68;;;;;;;;;;5082476;28;20044;-84
2024/01/21 12:51:48;;;;;;;;;;;;;;;;;;;;;
2024/01/21 12:54:15;;;;;;;67.20;15.33;;;;;;;;;;5088121;28;20330;-82
2024/01/21 12:56:41;;;;;;;59.13;15.90;;;;;;;;;;5065447;28;20320;-88
2024/01/21 12:59:07;;;;;;;39.63;12.17;;;;;;;;;;5087227;28;20286;-84
2024/01/21 13:01:33;;;;;;;39.10;11.10;;;;;;;;;;5086904;28;20263;-81
2024/01/21 13:03:59;;;;;;;47.27;13.03;;;;;;;;;;5067764;28;20324;-85
2024/01/21 13:06:30;;;;;;;56.77;15.53;;;;;;;;;;5072179;28;20325;-85
2024/01/21 13:08:58;;;;;;;69.47;16.33;;;;;;;;;;5082592;28;20033;-83
2024/01/21 13:11:29;;;;;;;44.93;14.60;;;;;;;;;;5068035;28;20278;-84
2024/01/21 13:13:55;;;;;;;61.93;15.27;;;;;;;;;;5066640;28;20270;-82
2024/01/21 13:16:21;;;;;;;60.40;16.80;;;;;;;;;;5086456;28;20312;-88
2024/01/21 13:18:47;;;;;;;58.93;17.20;;;;;;;;;;5068927;28;20274;-89
2024/01/21 13:21:14;;;;;;;82.77;18.23;;;;;;;;;;5072064;28;20338;-87
2024/01/21 13:23:45;;;;;;;57.93;17.47;;;;;;;;;;5090155;28;20278;-83
2024/01/21 13:26:12;;;;;;;54.47;16.07;;;;;;;;;;5091874;28;20290;-77
2024/01/21 13:28:49;;;;;;;54.10;15.80;;;;;;;;;;5092783;28;20262;-77
2024/01/21 13:31:17;;;;;;;68.10;19.27;;;;;;;;;;5092820;28;20269;-77
2024/01/21 13:33:51;;;;;;;64.70;17.10;;;;;;;;;;5093341;28;20020;-79
2024/01/21 13:36:17;;;;;;;54.47;16.67;;;;;;;;;;5073882;28;20504;-78
2024/01/21 13:38:50;;;;;;;64.87;17.53;;;;;;;;;;5092456;28;20051;-77
2024/01/21 13:41:16;;;;;;;70.00;17.33;;;;;;;;;;5091476;28;20263;-77
2024/01/21 13:43:48;;;;;;;67.53;18.17;;;;;;;;;;5074983;28;20283;-77
2024/01/21 13:46:33;;;;;;;61.40;17.30;;;;;;;;;;5074335;28;20294;-77
2024/01/21 13:48:59;;;;;;;40.13;15.67;;;;;;;;;;5092359;28;20266;-76
2024/01/21 13:51:27;;;;;;;62.70;18.33;;;;;;;;;;5073767;28;20301;-77
2024/01/21 13:53:56;;;;;;;48.10;12.50;;;;;;;;;;5073293;28;20024;-77
2024/01/21 13:56:22;;;;;;;74.93;20.73;;;;;;;;;;5072591;28;20294;-77
2024/01/21 13:58:48;;;;;;;42.10;15.70;;;;;;;;;;5074184;28;20279;-77
2024/01/21 14:01:18;;;;;;;65.33;18.93;;;;;;;;;;5091328;28;20282;-76
2024/01/21 14:03:47;;;;;;;55.63;17.17;;;;;;;;;;5072258;28;20025;-76
2024/01/21 14:06:18;;;;;;;58.53;17.67;;;;;;;;;;5090970;28;20267;-76
2024/01/21 14:08:44;;;;;;;62.63;16.30;;;;;;;;;;5090329;28;20495;-75
2024/01/21 14:11:10;;;;;;;62.17;13.53;;;;;;;;;;5071993;28;20277;-75
2024/01/21 14:13:40;;;;;;;76.97;21.23;;;;;;;;;;5072923;28;20774;-75
2024/01/21 14:16:06;;;;;;;54.77;17.97;;;;;;;;;;5093674;28;20317;-76
2024/01/21 14:18:32;;;;;;;63.17;19.23;;;;;;;;;;5075501;28;20291;-74